Time;durP1;ratioP1;P1;durP2;ratioP2;P2;SDS_P1;SDS_P2;PMS_P1;PMS_P2;Temp;Humidity;BMP_temperature;BMP_pressure;BME280_temperature;BME280_humidity;BME280_pressure;Samples;Min_cycle;Max_cycle;Signal;HPM_P1;HPM_P2
2023/06/11 00:00:05;;;;;;;20.80;10.50;;;;;;;26.01;51.59;99997.38;108021;1254;60387;-66
2023/06/11 00:02:35;;;;;;;16.60;10.70;;;;;;;26.18;51.26;99997.13;108020;1254;59947;-68
2023/06/11 00:05:07;;;;;;;18.10;10.30;;;;;;;25.91;51.66;99999.29;107993;1254;72261;-66
2023/06/11 00:07:37;;;;;;;18.00;10.70;;;;;;;26.02;51.56;99995.33;107984;1254;70011;-65
2023/06/11 00:10:07;;;;;;;18.80;10.10;;;;;;;26.02;51.55;100001.05;108013;1254;72795;-67
2023/06/11 00:12:34;;;;;;;25.70;11.10;;;;;;;25.91;51.81;99999.13;107995;1254;61752;-66
2023/06/11 00:15:05;;;;;;;14.70;11.00;;;;;;;25.82;52.09;99997.55;108030;1254;59491;-66
2023/06/11 00:17:33;;;;;;;15.10;10.70;;;;;;;25.85;51.85;99999.55;107957;1254;73193;-66
2023/06/11 00:20:09;;;;;;;15.10;10.70;;;;;;;25.81;51.96;100001.98;107891;1253;70287;-65
2023/06/11 00:22:40;;;;;;;22.30;11.30;;;;;;;25.96;51.72;100001.55;107913;1259;73640;-67
2023/06/11 00:25:09;;;;;;;16.10;11.10;;;;;;;25.83;51.76;99998.93;108019;1254;61616;-68
2023/06/11 00:27:37;;;;;;;19.00;9.80;;;;;;;25.64;52.03;99997.41;108021;1253;59562;-67
2023/06/11 00:30:05;;;;;;;16.40;10.20;;;;;;;25.59;51.89;99999.02;108127;1254;72966;-67
2023/06/11 00:32:34;;;;;;;15.10;9.60;;;;;;;25.45;52.03;99999.79;108113;1254;69693;-68
2023/06/11 00:35:06;;;;;;;14.10;9.30;;;;;;;25.77;51.26;100000.44;108005;1254;70778;-67
2023/06/11 00:37:35;;;;;;;15.30;9.50;;;;;;;25.82;51.11;100002.25;108061;1253;61624;-67
2023/06/11 00:40:08;;;;;;;19.90;9.80;;;;;;;25.67;51.30;100006.98;108073;1257;59579;-65
2023/06/11 00:42:36;;;;;;;16.70;9.40;;;;;;;25.29;51.93;100006.86;108084;1253;73111;-66
2023/06/11 00:45:05;;;;;;;16.00;9.60;;;;;;;25.42;51.68;100003.50;108110;1254;68878;-67
2023/06/11 00:47:36;;;;;;;19.00;10.40;;;;;;;25.51;51.43;100003.56;108057;1254;72689;-67
2023/06/11 00:50:04;;;;;;;14.20;9.60;;;;;;;25.43;51.44;100003.11;108044;1253;61046;-67
2023/06/11 00:52:32;;;;;;;15.80;9.40;;;;;;;25.58;50.95;100001.64;107952;1255;59511;-67
2023/06/11 00:54:59;;;;;;;19.50;8.90;;;;;;;25.44;51.06;100000.14;107997;1254;71831;-67
2023/06/11 00:57:29;;;;;;;20.10;9.80;;;;;;;25.19;51.51;99996.78;108081;1253;69195;-67
2023/06/11 01:00:00;;;;;;;16.50;9.10;;;;;;;25.14;51.43;99998.49;107992;1254;71457;-68
2023/06/11 01:02:57;;;;;;;15.50;8.90;;;;;;;25.15;51.09;100009.94;108003;1254;61252;-67
2023/06/11 01:05:31;;;;;;;17.40;8.90;;;;;;;25.30;50.77;100013.23;108094;1254;59001;-65
2023/06/11 01:07:59;;;;;;;10.60;8.00;;;;;;;25.23;50.69;100019.67;107987;1259;73215;-66
2023/06/11 01:10:31;;;;;;;11.50;8.10;;;;;;;25.21;50.54;100022.61;108003;1254;69006;-66
2023/06/11 01:13:01;;;;;;;13.50;8.00;;;;;;;25.14;50.56;100026.71;108027;1254;72640;-67
2023/06/11 01:15:29;;;;;;;9.90;7.60;;;;;;;24.87;50.74;100022.35;108028;1253;60438;-67
2023/06/11 01:18:05;;;;;;;14.50;8.00;;;;;;;24.98;50.63;100022.05;108021;1253;60303;-67
2023/06/11 01:20:44;;;;;;;10.80;7.20;;;;;;;25.14;50.20;100025.09;108126;1254;72779;-66
2023/06/11 01:23:15;;;;;;;19.40;8.50;;;;;;;25.26;49.88;100024.27;108043;1254;68206;-66
2023/06/11 01:25:57;;;;;;;13.60;7.70;;;;;;;25.26;49.76;100033.07;108073;1254;72824;-67
2023/06/11 01:28:28;;;;;;;;;;;;;;;25.01;50.21;100033.06;107967;1258;60706;-67
2023/06/11 01:30:57;;;;;;;15.20;7.70;;;;;;;25.09;50.18;100032.71;107998;1254;60321;-67
2023/06/11 01:33:26;;;;;;;11.70;8.50;;;;;;;25.14;50.25;100034.48;107993;1254;74095;-66
2023/06/11 01:35:57;;;;;;;14.80;8.10;;;;;;;25.04;50.36;100033.77;107832;1254;70464;-66
2023/06/11 01:38:34;;;;;;;13.70;8.10;;;;;;;25.03;50.35;100036.42;108007;1255;72821;-66
2023/06/11 01:41:05;;;;;;;18.80;8.10;;;;;;;25.13;50.21;100038.79;107916;1254;61026;-67
2023/06/11 01:43:33;;;;;;;13.10;8.40;;;;;;;25.08;50.15;100037.86;107940;1258;60435;-67
2023/06/11 01:46:03;;;;;;;20.80;8.60;;;;;;;25.08;50.02;100037.55;107950;1254;72360;-67
2023/06/11 01:48:30;;;;;;;18.30;8.90;;;;;;;25.09;50.09;100045.91;107998;1254;70161;-65
2023/06/11 01:50:58;;;;;;;14.90;8.20;;;;;;;25.12;49.83;100045.58;107971;1254;73125;-65
2023/06/11 01:53:25;;;;;;;10.80;7.70;;;;;;;24.90;50.22;100047.42;108009;1254;60363;-67
2023/06/11 01:55:56;;;;;;;13.30;7.50;;;;;;;24.80;50.22;100049.46;107905;1254;60377;-66
2023/06/11 01:58:26;;;;;;;13.10;7.20;;;;;;;24.87;50.15;100050.39;107784;1254;73026;-66
2023/06/11 02:00:53;;;;;;;11.90;7.40;;;;;;;25.15;49.30;100054.50;107819;1254;69936;-67
2023/06/11 02:03:21;;;;;;;16.70;8.10;;;;;;;25.18;49.09;100055.02;107942;1254;73020;-65
2023/06/11 02:05:48;;;;;;;12.80;7.60;;;;;;;25.10;49.07;100055.86;107830;1254;61746;-65
2023/06/11 02:08:18;;;;;;;11.80;7.30;;;;;;;25.16;48.91;100056.36;107952;1254;60484;-66
2023/06/11 02:10:47;;;;;;;9.60;6.80;;;;;;;25.00;49.04;100058.95;107829;1254;73115;-68
2023/06/11 02:13:15;;;;;;;15.40;7.20;;;;;;;24.94;49.11;100065.48;107990;1254;68792;-66
2023/06/11 02:15:44;;;;;;;17.50;7.20;;;;;;;24.95;49.00;100071.70;107896;1254;71185;-67
2023/06/11 02:18:12;;;;;;;11.90;7.00;;;;;;;24.99;48.76;100070.59;107790;1254;61625;-67
2023/06/11 02:20:42;;;;;;;13.60;7.00;;;;;;;24.97;48.80;100074.58;107873;1254;60704;-66
2023/06/11 02:23:10;;;;;;;17.80;7.00;;;;;;;24.88;48.90;100073.30;107885;1254;73429;-67
2023/06/11 02:25:37;;;;;;;13.50;6.90;;;;;;;24.88;48.71;100075.92;107960;1254;70104;-67
2023/06/11 02:28:05;;;;;;;10.30;6.40;;;;;;;24.84;48.78;100071.16;107970;1254;71140;-66
2023/06/11 02:30:33;;;;;;;10.50;6.30;;;;;;;24.80;48.76;100067.01;108032;1254;61911;-67
2023/06/11 02:33:00;;;;;;;12.30;6.40;;;;;;;24.68;48.67;100066.03;107877;1254;60330;-67
2023/06/11 02:35:32;;;;;;;8.80;6.50;;;;;;;24.52;48.67;100066.04;108039;1254;73765;-67
2023/06/11 02:38:02;;;;;;;17.50;6.60;;;;;;;24.66;48.43;100068.58;107962;1259;70304;-67
2023/06/11 02:40:29;;;;;;;11.30;6.60;;;;;;;24.63;48.51;100072.98;107890;1254;72690;-67
2023/06/11 02:42:56;;;;;;;10.50;6.70;;;;;;;24.68;48.51;100073.08;107983;1254;60468;-66
2023/06/11 02:45:24;;;;;;;10.60;6.50;;;;;;;24.73;48.54;100071.16;107992;1254;60313;-66
2023/06/11 02:47:53;;;;;;;15.80;6.60;;;;;;;24.60;48.82;100073.66;108080;1254;74636;-65
2023/06/11 02:50:23;;;;;;;11.40;6.90;;;;;;;24.58;48.73;100074.06;108019;1259;68883;-66
2023/06/11 02:52:53;;;;;;;13.20;6.90;;;;;;;24.62;48.48;100081.58;107973;1253;72723;-66
2023/06/11 02:55:20;;;;;;;12.80;7.20;;;;;;;24.54;48.81;100084.61;108013;1254;60452;-67
2023/06/11 02:57:47;;;;;;;14.30;6.80;;;;;;;24.53;48.76;100087.96;108040;1254;60419;-66
2023/06/11 03:00:18;;;;;;;12.90;6.70;;;;;;;24.63;48.59;100090.81;107941;1254;72572;-66
2023/06/11 03:02:45;;;;;;;17.10;7.50;;;;;;;24.71;48.58;100092.88;107981;1254;70401;-67
2023/06/11 03:05:14;;;;;;;13.30;7.20;;;;;;;24.92;48.08;100088.49;107785;1260;72796;-67
2023/06/11 03:07:43;;;;;;;10.40;6.40;;;;;;;24.94;47.96;100091.52;107961;1254;60526;-66
2023/06/11 03:10:12;;;;;;;15.50;6.80;;;;;;;24.95;47.66;100093.81;107773;1254;60386;-66
2023/06/11 03:12:42;;;;;;;8.30;5.70;;;;;;;24.92;47.57;100095.16;107927;1254;74004;-66
2023/06/11 03:15:12;;;;;;;11.00;6.80;;;;;;;24.78;47.73;100094.89;107935;1254;70300;-67
2023/06/11 03:17:40;;;;;;;14.30;7.10;;;;;;;24.94;47.52;100090.10;107980;1254;71457;-67
2023/06/11 03:20:08;;;;;;;11.70;6.50;;;;;;;24.76;47.76;100091.73;107993;1257;61692;-67
2023/06/11 03:22:39;;;;;;;11.70;6.40;;;;;;;24.63;47.67;100092.63;107806;1253;60314;-66
2023/06/11 03:25:07;;;;;;;15.50;6.60;;;;;;;24.74;47.49;100096.96;107945;1254;72153;-66
2023/06/11 03:27:37;;;;;;;11.70;6.10;;;;;;;24.68;47.94;100098.05;108161;1258;69977;-65
2023/06/11 03:30:06;;;;;;;9.90;6.20;;;;;;;24.74;47.61;100095.85;108060;1254;72620;-65
2023/06/11 03:32:34;;;;;;;10.60;6.10;;;;;;;24.65;47.33;100098.09;107990;1254;60537;-66
2023/06/11 03:35:04;;;;;;;12.30;6.40;;;;;;;24.96;47.07;100101.27;107992;1253;60431;-66
2023/06/11 03:37:32;;;;;;;13.40;6.10;;;;;;;25.03;47.06;100104.11;108014;1253;72939;-65
2023/06/11 03:40:00;;;;;;;11.50;6.20;;;;;;;24.82;47.06;100105.58;108022;1254;69168;-66
2023/06/11 03:42:30;;;;;;;11.70;6.00;;;;;;;24.98;46.82;100106.78;108048;1253;72480;-66
2023/06/11 03:44:58;;;;;;;11.40;5.80;;;;;;;24.87;46.62;100104.39;108041;1253;62373;-67
2023/06/11 03:47:29;;;;;;;9.10;5.40;;;;;;;25.02;46.32;100098.51;107992;1253;60306;-66
2023/06/11 03:49:56;;;;;;;13.00;5.50;;;;;;;25.21;45.98;100101.52;108007;1253;72550;-67
2023/06/11 03:52:26;;;;;;;9.70;5.50;;;;;;;25.22;45.83;100098.11;107929;1254;70279;-66
2023/06/11 03:54:56;;;;;;;10.10;5.90;;;;;;;25.31;45.82;100097.65;108043;1254;72302;-67
2023/06/11 03:57:26;;;;;;;11.10;5.90;;;;;;;25.27;45.93;100096.23;108016;1254;60901;-67
2023/06/11 03:59:54;;;;;;;15.80;5.90;;;;;;;25.11;45.97;100104.98;108047;1253;60140;-66
2023/06/11 04:02:23;;;;;;;8.00;5.10;;;;;;;24.94;45.86;100104.77;108019;1253;73923;-66
2023/06/11 04:04:53;;;;;;;13.60;5.70;;;;;;;25.11;45.81;100102.05;107972;1253;70058;-67
2023/06/11 04:07:26;;;;;;;11.30;6.20;;;;;;;25.17;45.75;100100.55;107821;1253;72640;-67
2023/06/11 04:09:53;;;;;;;7.70;5.60;;;;;;;25.25;45.37;100094.27;108049;1253;61729;-68
2023/06/11 04:12:26;;;;;;;7.00;5.00;;;;;;;25.36;45.15;100095.84;107824;1253;60434;-67
2023/06/11 04:14:53;;;;;;;16.10;5.60;;;;;;;25.46;44.69;100091.79;108011;1253;73912;-66
2023/06/11 04:17:21;;;;;;;6.60;5.10;;;;;;;25.37;44.74;100090.02;108013;1253;69049;-68
2023/06/11 04:19:51;;;;;;;6.80;5.50;;;;;;;25.11;44.92;100087.91;107900;1256;72637;-68
2023/06/11 04:22:18;;;;;;;15.60;4.80;;;;;;;25.12;44.94;100089.06;107982;1253;63904;-66
2023/06/11 04:24:52;;;;;;;9.70;4.90;;;;;;;25.18;44.69;100087.40;108024;1253;60335;-65
2023/06/11 04:27:28;;;;;;;8.90;5.30;;;;;;;25.03;44.61;100089.20;107904;1253;72975;-66
2023/06/11 04:29:56;;;;;;;8.50;5.10;;;;;;;25.31;44.36;100089.38;107840;1253;70144;-66
2023/06/11 04:32:26;;;;;;;9.50;4.80;;;;;;;25.46;44.04;100087.48;108099;1253;71411;-67
2023/06/11 04:34:59;;;;;;;12.30;4.80;;;;;;;25.40;43.59;100092.20;108044;1254;60450;-66
2023/06/11 04:37:29;;;;;;;9.90;4.40;;;;;;;25.15;43.51;100097.92;107957;1255;60328;-67
2023/06/11 04:40:00;;;;;;;8.60;4.70;;;;;;;25.02;44.12;100098.67;108037;1253;73886;-68
2023/06/11 04:42:28;;;;;;;8.30;5.30;;;;;;;24.92;44.78;100107.52;107920;1253;70235;-67
2023/06/11 04:45:01;;;;;;;10.80;5.00;;;;;;;25.10;44.70;100102.91;108013;1253;72817;-67
2023/06/11 04:47:32;;;;;;;10.20;4.70;;;;;;;25.19;44.65;100103.32;107894;1260;62182;-65
2023/06/11 04:50:04;;;;;;;13.20;5.20;;;;;;;25.04;44.47;100104.02;108000;1253;59122;-66
2023/06/11 04:52:31;;;;;;;11.00;5.00;;;;;;;25.03;44.28;100106.80;108020;1253;73222;-68
2023/06/11 04:55:00;;;;;;;9.50;5.30;;;;;;;24.91;44.66;100116.73;108047;1253;70511;-68
2023/06/11 04:57:32;;;;;;;12.80;4.40;;;;;;;24.68;44.66;100119.73;108041;1253;71224;-67
2023/06/11 05:00:01;;;;;;;9.60;4.50;;;;;;;24.71;44.54;100120.38;108029;1254;60387;-67
2023/06/11 05:02:29;;;;;;;10.50;4.60;;;;;;;24.83;44.06;100123.70;108041;1253;60288;-67
2023/06/11 05:04:57;;;;;;;13.20;4.60;;;;;;;24.85;44.07;100125.08;108062;1253;71673;-66
2023/06/11 05:07:28;;;;;;;8.70;4.00;;;;;;;24.91;43.86;100130.06;108066;1253;69434;-67
2023/06/11 05:09:58;;;;;;;11.80;4.00;;;;;;;24.97;43.13;100134.35;108054;1253;72680;-67
2023/06/11 05:12:26;;;;;;;10.00;4.10;;;;;;;24.80;42.68;100134.59;108111;1254;60443;-67
2023/06/11 05:14:58;;;;;;;10.70;3.70;;;;;;;24.63;42.86;100137.61;108042;1257;60332;-65
2023/06/11 05:17:29;;;;;;;7.20;3.50;;;;;;;24.74;42.86;100138.70;108072;1253;71979;-68
2023/06/11 05:19:56;;;;;;;12.00;4.10;;;;;;;24.55;43.03;100145.25;108052;1253;69250;-68
2023/06/11 05:22:23;;;;;;;11.80;3.90;;;;;;;24.56;42.96;100140.65;108042;1253;71517;-67
2023/06/11 05:24:52;;;;;;;9.90;3.90;;;;;;;24.75;42.98;100137.39;107920;1253;61778;-67
2023/06/11 05:27:24;;;;;;;10.80;3.90;;;;;;;24.76;42.97;100140.83;107840;1254;60416;-68
2023/06/11 05:29:58;;;;;;;6.90;3.10;;;;;;;24.72;42.52;100146.14;108002;1254;73917;-67
2023/06/11 05:32:31;;;;;;;7.60;3.30;;;;;;;24.66;42.51;100150.06;107960;1254;69584;-67
2023/06/11 05:35:01;;;;;;;9.40;3.30;;;;;;;24.78;42.48;100157.67;107978;1254;72576;-67
2023/06/11 05:37:28;;;;;;;4.90;2.90;;;;;;;24.70;42.25;100162.44;108053;1254;60862;-66
2023/06/11 05:39:58;;;;;;;7.50;3.40;;;;;;;24.89;42.03;100161.92;107767;1254;58984;-67
2023/06/11 05:42:33;;;;;;;8.90;3.50;;;;;;;24.96;41.82;100164.83;107964;1254;74699;-67
2023/06/11 05:45:03;;;;;;;14.50;3.80;;;;;;;24.69;41.75;100170.07;107921;1254;70787;-67
2023/06/11 05:47:32;;;;;;;6.00;3.10;;;;;;;24.92;41.69;100163.40;107987;1254;71799;-68
2023/06/11 05:50:01;;;;;;;9.60;3.40;;;;;;;24.99;41.54;100167.60;108013;1254;60423;-67
2023/06/11 05:52:33;;;;;;;7.10;3.00;;;;;;;24.94;41.35;100165.39;107872;1254;58969;-67
2023/06/11 05:55:03;;;;;;;8.70;3.20;;;;;;;24.82;41.23;100168.27;107857;1254;74161;-67
2023/06/11 05:57:34;;;;;;;8.90;3.30;;;;;;;24.62;41.58;100166.98;107998;1254;69530;-68
2023/06/11 06:00:01;;;;;;;10.70;2.80;;;;;;;24.61;41.56;100166.55;107975;1254;73275;-67
2023/06/11 06:02:41;;;;;;;6.70;3.30;;;;;;;24.44;41.63;100171.51;107922;1254;61245;-67
2023/06/11 06:05:15;;;;;;;6.50;3.10;;;;;;;24.63;41.57;100179.27;108005;1254;60320;-68
2023/06/11 06:07:45;;;;;;;8.70;2.90;;;;;;;24.79;41.65;100188.89;108029;1254;72059;-67
2023/06/11 06:10:13;;;;;;;7.30;3.10;;;;;;;24.68;41.68;100185.41;107890;1254;70507;-68
2023/06/11 06:12:41;;;;;;;4.50;3.00;;;;;;;24.60;41.92;100190.73;108035;1254;70917;-68
2023/06/11 06:15:11;;;;;;;3.50;2.20;;;;;;;24.55;41.93;100185.84;108050;1253;60716;-68
2023/06/11 06:17:40;;;;;;;9.10;3.10;;;;;;;24.31;42.30;100193.05;108020;1254;60316;-68
2023/06/11 06:20:10;;;;;;;6.30;2.80;;;;;;;24.12;42.31;100194.23;108014;1254;72191;-68
2023/06/11 06:22:40;;;;;;;7.00;2.90;;;;;;;24.05;42.32;100196.21;108006;1254;70404;-68
2023/06/11 06:25:07;;;;;;;7.00;3.00;;;;;;;23.77;42.79;100198.73;107904;1255;71452;-68
2023/06/11 06:27:37;;;;;;;4.60;3.10;;;;;;;23.86;43.00;100202.70;108043;1253;61710;-67
2023/06/11 06:30:06;;;;;;;9.80;2.90;;;;;;;24.07;42.78;100206.70;107793;1253;60307;-68
2023/06/11 06:32:34;;;;;;;12.30;3.50;;;;;;;24.25;42.61;100204.70;108008;1253;74328;-68
2023/06/11 06:35:02;;;;;;;6.70;4.00;;;;;;;24.15;42.47;100209.04;108004;1253;69165;-67
2023/06/11 06:37:30;;;;;;;14.50;5.50;;;;;;;24.12;42.46;100214.85;108038;1254;72982;-68
2023/06/11 06:39:59;;;;;;;12.50;4.20;;;;;;;23.90;42.55;100214.17;107991;1253;60482;-67
2023/06/11 06:42:26;;;;;;;7.80;3.20;;;;;;;23.82;42.64;100212.29;108083;1253;59983;-67
2023/06/11 06:44:57;;;;;;;7.80;2.90;;;;;;;23.86;42.84;100219.58;108054;1253;72941;-67
2023/06/11 06:47:24;;;;;;;7.70;3.50;;;;;;;23.78;43.08;100215.50;108086;1253;68847;-67
2023/06/11 06:49:54;;;;;;;7.60;3.20;;;;;;;23.59;43.07;100221.96;108184;1253;70881;-67
2023/06/11 06:52:21;;;;;;;8.80;2.60;;;;;;;23.54;43.21;100223.39;108119;1253;61660;-67
2023/06/11 06:54:51;;;;;;;5.90;2.70;;;;;;;23.40;43.37;100232.30;108142;1252;60372;-67
2023/06/11 06:57:21;;;;;;;7.80;3.50;;;;;;;23.27;43.72;100226.51;108123;1253;72977;-69
2023/06/11 06:59:48;;;;;;;7.50;3.20;;;;;;;23.06;44.20;100228.91;108103;1253;69213;-68
2023/06/11 07:02:16;;;;;;;6.60;3.10;;;;;;;23.12;44.07;100227.09;108018;1255;71345;-67
2023/06/11 07:04:45;;;;;;;11.00;3.20;;;;;;;23.23;44.13;100224.70;108063;1253;60531;-67
2023/06/11 07:07:14;;;;;;;4.00;2.90;;;;;;;23.45;43.89;100222.77;108020;1253;59225;-65
2023/06/11 07:09:41;;;;;;;6.20;3.10;;;;;;;23.22;43.63;100227.34;108066;1253;73062;-65
2023/06/11 07:12:10;;;;;;;4.60;2.80;;;;;;;23.23;43.57;100225.91;108105;1253;70287;-67
2023/06/11 07:14:38;;;;;;;6.60;3.00;;;;;;;23.36;43.46;100225.16;108197;1253;72709;-67
2023/06/11 07:17:06;;;;;;;6.30;2.90;;;;;;;23.46;43.37;100230.69;108082;1253;61631;-66
2023/06/11 07:19:37;;;;;;;6.30;2.80;;;;;;;23.48;43.20;100229.60;108105;1252;58976;-66
2023/06/11 07:22:05;;;;;;;10.10;3.40;;;;;;;23.31;43.35;100239.18;108259;1253;72898;-66
2023/06/11 07:24:39;;;;;;;5.70;2.60;;;;;;;23.15;43.40;100244.95;108191;1253;70286;-67
2023/06/11 07:27:06;;;;;;;6.10;2.50;;;;;;;23.36;43.26;100246.15;108068;1256;72954;-67
2023/06/11 07:29:34;;;;;;;5.10;2.40;;;;;;;23.35;43.02;100252.12;108085;1253;60560;-67
2023/06/11 07:32:04;;;;;;;10.50;2.50;;;;;;;23.29;42.97;100246.94;108086;1253;60333;-67
2023/06/11 07:34:39;;;;;;;4.00;2.60;;;;;;;23.30;42.91;100243.43;108118;1253;73924;-67
2023/06/11 07:37:06;;;;;;;5.40;2.90;;;;;;;23.18;43.12;100243.34;108014;1258;70701;-68
2023/06/11 07:39:33;;;;;;;4.20;2.60;;;;;;;23.13;43.26;100248.27;108152;1253;72637;-68
2023/06/11 07:42:02;;;;;;;7.20;2.80;;;;;;;22.90;43.26;100248.32;108031;1253;62114;-68
2023/06/11 07:44:30;;;;;;;6.30;2.80;;;;;;;22.77;43.65;100247.09;108178;1253;60311;-68
2023/06/11 07:46:57;;;;;;;9.10;2.50;;;;;;;22.74;43.81;100248.80;107931;1253;73101;-68
2023/06/11 07:49:25;;;;;;;5.80;3.20;;;;;;;22.67;43.84;100250.81;108011;1253;70334;-67
2023/06/11 07:51:55;;;;;;;5.80;2.60;;;;;;;22.46;44.19;100246.18;108043;1253;74892;-67
2023/06/11 07:54:23;;;;;;;10.30;2.80;;;;;;;22.59;43.85;100249.41;108069;1253;61647;-68
2023/06/11 07:56:50;;;;;;;6.30;3.40;;;;;;;22.63;43.75;100248.70;108041;1253;60343;-68
2023/06/11 07:59:17;;;;;;;6.00;2.70;;;;;;;22.47;44.07;100252.23;108124;1253;73804;-67
2023/06/11 08:01:45;;;;;;;4.80;2.70;;;;;;;22.68;43.77;100257.70;107989;1253;70158;-67
2023/06/11 08:04:12;;;;;;;5.70;2.40;;;;;;;22.79;43.52;100256.94;107857;1254;72677;-68
2023/06/11 08:06:40;;;;;;;3.60;2.30;;;;;;;22.99;42.99;100260.48;107910;1256;60457;-67
2023/06/11 08:09:08;;;;;;;3.30;2.50;;;;;;;22.93;42.93;100257.41;107914;1254;60327;-68
2023/06/11 08:11:37;;;;;;;6.60;2.30;;;;;;;23.00;42.90;100258.62;107974;1254;73885;-66
2023/06/11 08:14:04;;;;;;;5.20;2.90;;;;;;;23.23;42.58;100255.88;107879;1259;70307;-67
2023/06/11 08:16:34;;;;;;;4.00;2.90;;;;;;;23.13;42.65;100257.09;107972;1256;72867;-65
2023/06/11 08:19:01;;;;;;;6.50;2.80;;;;;;;23.12;42.80;100254.34;107987;1254;61166;-66
2023/06/11 08:21:28;;;;;;;5.40;2.40;;;;;;;23.37;42.27;100251.58;108004;1258;60329;-67
2023/06/11 08:23:57;;;;;;;5.90;3.00;;;;;;;23.34;42.19;100248.80;107968;1253;72566;-68
2023/06/11 08:26:25;;;;;;;8.50;3.90;;;;;;;23.53;41.93;100250.14;107986;1253;70756;-67
2023/06/11 08:29:01;;;;;;;4.60;2.50;;;;;;;23.53;41.96;100243.67;108102;1257;71714;-67
2023/06/11 08:31:29;;;;;;;4.90;2.90;;;;;;;23.44;41.89;100250.43;108014;1253;61751;-67
2023/06/11 08:33:57;;;;;;;4.00;2.50;;;;;;;23.22;42.31;100250.42;108133;1253;60292;-67
2023/06/11 08:36:26;;;;;;;3.40;2.50;;;;;;;23.40;42.01;100239.48;108105;1253;73953;-67
2023/06/11 08:38:53;;;;;;;4.80;2.30;;;;;;;23.55;41.84;100239.21;108012;1253;70145;-67
2023/06/11 08:41:23;;;;;;;7.60;3.10;;;;;;;23.60;41.71;100238.09;108042;1253;71410;-67
2023/06/11 08:43:52;;;;;;;11.10;2.90;;;;;;;23.30;41.96;100239.65;107986;1254;60556;-67
2023/06/11 08:46:22;;;;;;;6.80;3.30;;;;;;;23.24;42.01;100239.96;108059;1253;60238;-67
2023/06/11 08:48:59;;;;;;;3.90;2.50;;;;;;;23.31;42.10;100240.64;108009;1253;73844;-67
2023/06/11 08:51:27;;;;;;;4.80;2.60;;;;;;;23.37;42.08;100238.14;108018;1253;69810;-67
2023/06/11 08:53:55;;;;;;;6.00;2.60;;;;;;;23.26;42.12;100236.61;107929;1253;72651;-67
2023/06/11 08:56:23;;;;;;;7.70;2.70;;;;;;;23.16;42.49;100231.77;107888;1254;61654;-67
2023/06/11 08:58:50;;;;;;;5.10;2.70;;;;;;;23.34;42.36;100233.34;108009;1253;60340;-67
2023/06/11 09:01:20;;;;;;;5.70;2.20;;;;;;;23.38;42.02;100225.64;107941;1253;73810;-67
2023/06/11 09:03:51;;;;;;;5.40;2.50;;;;;;;23.51;41.97;100229.89;108120;1253;70692;-66
2023/06/11 09:06:18;;;;;;;4.70;2.90;;;;;;;23.57;41.62;100226.71;108238;1253;72718;-69
2023/06/11 09:09:03;;;;;;;5.00;2.50;;;;;;;23.75;41.48;100226.19;108088;1253;61616;-67
2023/06/11 09:11:36;;;;;;;3.30;2.10;;;;;;;23.60;41.73;100230.31;108140;1253;60277;-67
2023/06/11 09:14:05;;;;;;;6.70;2.50;;;;;;;23.89;41.49;100232.09;108220;1252;73164;-67
2023/06/11 09:16:43;;;;;;;7.20;2.00;;;;;;;23.84;41.03;100232.80;108100;1253;70046;-67
2023/06/11 09:21:36;;;;;;;7.30;2.80;;;;;;;20.70;47.94;100250.54;104869;1294;613241;-67
2023/06/11 09:24:09;;;;;;;3.20;1.90;;;;;;;21.95;45.58;100245.76;107388;1267;61971;-67
2023/06/11 09:26:37;;;;;;;5.90;2.50;;;;;;;22.33;44.60;100241.91;107317;1266;60311;-67
2023/06/11 09:29:07;;;;;;;2.80;2.20;;;;;;;22.45;44.29;100245.90;107301;1267;72229;-67
2023/06/11 09:31:34;;;;;;;3.80;2.70;;;;;;;22.61;43.80;100246.48;107268;1267;70179;-67
2023/06/11 09:34:06;;;;;;;4.80;2.20;;;;;;;22.62;43.59;100249.09;107135;1264;198032;-67
2023/06/11 09:36:34;;;;;;;4.70;2.40;;;;;;;22.36;43.86;100252.96;107481;1263;62014;-67
2023/06/11 09:39:00;;;;;;;4.90;2.20;;;;;;;22.47;43.74;100254.13;107344;1269;61451;-67
2023/06/11 09:41:30;;;;;;;4.70;2.30;;;;;;;22.38;43.92;100254.34;107343;1264;71935;-67
2023/06/11 09:43:59;;;;;;;5.20;2.30;;;;;;;22.46;43.95;100252.98;107301;1268;70334;-67
2023/06/11 09:46:26;;;;;;;2.70;2.10;;;;;;;22.58;43.49;100257.17;107388;1269;72742;-67
2023/06/11 09:48:52;;;;;;;3.70;2.30;;;;;;;22.26;44.25;100257.52;107336;1264;60205;-68
2023/06/11 09:51:22;;;;;;;2.90;2.10;;;;;;;22.34;44.05;100256.31;107118;1266;59510;-68
2023/06/11 09:53:51;;;;;;;3.70;2.20;;;;;;;22.59;43.78;100253.27;107125;1272;72979;-67
2023/06/11 09:56:21;;;;;;;3.70;2.30;;;;;;;22.64;43.57;100257.58;107907;1259;70118;-67
2023/06/11 09:58:49;;;;;;;4.10;2.00;;;;;;;22.81;43.09;100255.91;107893;1257;72650;-68
2023/06/11 10:01:18;;;;;;;3.30;1.90;;;;;;;22.55;43.27;100261.34;107988;1259;62074;-68
2023/06/11 10:03:47;;;;;;;7.80;2.30;;;;;;;22.60;43.46;100258.63;108074;1254;60107;-67
2023/06/11 10:06:20;;;;;;;2.70;2.20;;;;;;;22.49;43.50;100258.31;108048;1259;72783;-66
2023/06/11 10:08:48;;;;;;;4.50;2.40;;;;;;;22.33;43.39;100259.44;107990;1254;72203;-68
2023/06/11 10:11:20;;;;;;;4.90;2.70;;;;;;;22.47;43.02;100257.17;107886;1254;73763;-69
2023/06/11 10:13:58;;;;;;;3.60;2.50;;;;;;;22.37;43.32;100252.84;107870;1260;61787;-68
2023/06/11 10:16:25;;;;;;;4.00;2.70;;;;;;;22.03;43.85;100259.92;108092;1254;60113;-67
2023/06/11 10:18:52;;;;;;;6.00;2.60;;;;;;;22.06;43.77;100263.98;107962;1260;72809;-68
2023/06/11 10:21:18;;;;;;;12.20;3.80;;;;;;;22.14;43.86;100260.48;108013;1254;70467;-68
2023/06/11 10:23:50;;;;;;;5.30;3.00;;;;;;;22.13;43.53;100267.90;107983;1259;71156;-67
2023/06/11 10:26:18;;;;;;;4.40;2.70;;;;;;;22.16;43.67;100270.38;108139;1260;61190;-68
2023/06/11 10:28:48;;;;;;;3.90;2.30;;;;;;;22.35;43.41;100272.55;108195;1255;59518;-67
2023/06/11 10:31:28;;;;;;;4.70;2.70;;;;;;;22.47;42.95;100277.09;108095;1260;72836;-68
2023/06/11 10:34:04;;;;;;;5.50;2.70;;;;;;;22.37;43.00;100280.55;108122;1258;69257;-68
2023/06/11 10:36:36;;;;;;;5.10;2.70;;;;;;;22.31;43.15;100287.16;108100;1254;72688;-68
2023/06/11 10:39:08;;;;;;;4.30;2.60;;;;;;;22.24;43.06;100288.84;108026;1258;61836;-69
2023/06/11 10:41:39;;;;;;;7.30;3.60;;;;;;;22.17;43.19;100287.98;108121;1257;60282;-68
2023/06/11 10:44:07;;;;;;;12.80;5.30;;;;;;;22.17;43.24;100283.09;108096;1254;72970;-68
2023/06/11 10:46:52;;;;;;;8.60;4.80;;;;;;;22.29;43.13;100283.40;108088;1254;68857;-68
2023/06/11 10:49:22;;;;;;;5.80;3.60;;;;;;;22.18;43.31;100292.13;108078;1254;71254;-68
2023/06/11 10:51:49;;;;;;;5.00;3.10;;;;;;;22.08;43.43;100295.89;108052;1254;60511;-68
2023/06/11 10:54:37;;;;;;;7.80;3.30;;;;;;;21.82;43.68;100300.67;108047;1254;60040;-68
2023/06/11 10:57:07;;;;;;;7.90;3.70;;;;;;;22.06;43.52;100299.55;108099;1254;72897;-68
2023/06/11 10:59:36;;;;;;;9.70;3.20;;;;;;;22.38;42.81;100299.11;108097;1260;68781;-68
2023/06/11 11:02:02;;;;;;;6.50;3.20;;;;;;;22.63;42.18;100298.26;108062;1259;72547;-68
2023/06/11 11:04:29;;;;;;;7.10;3.60;;;;;;;22.58;42.53;100300.65;108143;1254;61736;-68
2023/06/11 11:07:08;;;;;;;10.40;4.60;;;;;;;22.58;42.70;100298.70;108112;1254;59519;-68
2023/06/11 11:09:36;;;;;;;6.50;3.70;;;;;;;22.65;42.34;100300.92;108166;1254;71663;-67
2023/06/11 11:12:03;;;;;;;8.20;3.60;;;;;;;22.39;42.66;100307.04;108054;1254;70745;-68
2023/06/11 11:14:30;;;;;;;11.10;3.80;;;;;;;22.20;42.77;100310.09;108144;1254;72836;-66
2023/06/11 11:17:00;;;;;;;9.00;4.60;;;;;;;22.08;43.07;100311.77;108106;1254;62025;-68
2023/06/11 11:19:27;;;;;;;9.20;4.00;;;;;;;22.10;43.21;100309.62;108140;1258;60333;-67
2023/06/11 11:21:55;;;;;;;7.10;3.90;;;;;;;22.47;42.82;100305.52;108128;1257;71287;-68
2023/06/11 11:24:23;;;;;;;7.50;3.30;;;;;;;22.40;42.62;100306.08;108077;1255;69799;-67
2023/06/11 11:26:50;;;;;;;6.10;3.40;;;;;;;22.41;42.55;100303.52;108019;1257;71502;-68